Terminal Aerodrome Forecast
Issued by NWS

Home | Current Version | Previous Version | Text Only | Print | Product List | Glossary On
Versions: 1 2 3 4 5 6 7 8 9 10 11 12
000
FTUS45 KTFX 010500
TAFHLN
TAF
KHLN 010520Z 0106/0206 VRB05KT P6SM SKC
     FM011000 VRB05KT P6SM BKN120
     FM012000 35007KT P6SM VCSH SCT070 OVC090
     FM020300 30011KT P6SM -SHRA SCT050 OVC070=

USA.gov is the U.S. government's official web portal to all federal, state and local government web resources and services.